This is the latest recevied weather packets stored in our database for station/object K8RRT. If no packets are shown the sender has not sent any weather packets the latest 10 day(s).
| Time | Temp. | Humidity | Pressure | Rain* | Wind** | Luminosity | Snow |
|---|---|---|---|---|---|---|---|
| 1777839308 | 16.67° C | 38% | 1012.5 hPa | 0 mm | - | 480 W/m² | - |
| 1777839005 | 16.67° C | 40% | 1012.5 hPa | 0 mm | - | 405 W/m² | - |
| 1777838701 | 17.22° C | 38% | 1012.7 hPa | 0 mm | - | 556 W/m² | - |
| 1777838397 | 16.67° C | 40% | 1012.5 hPa | 0 mm | - | 594 W/m² | - |
| 1777838095 | 16.67° C | 39% | 1012.8 hPa | 0 mm | - | 619 W/m² | - |
| 1777837791 | 16.67° C | 40% | 1012.8 hPa | 0 mm | - | 652 W/m² | - |
| 1777837489 | 16.11° C | 37% | 1012.9 hPa | 0 mm | - | 661 W/m² | - |
| 1777837184 | 16.67° C | 36% | 1013.1 hPa | 0 mm | - | 647 W/m² | - |
| 1777836879 | 16.11° C | 40% | 1013.3 hPa | 0 mm | - | 625 W/m² | - |
| 1777836575 | 16.67° C | 38% | 1013.4 hPa | 0 mm | - | 627 W/m² | - |
| 1777836272 | 16.11° C | 42% | 1013.4 hPa | 0 mm | - | 636 W/m² | - |
| 1777835967 | 16.67° C | 37% | 1013.3 hPa | 0 mm | - | 651 W/m² | - |
| 1777835666 | 15.56° C | 41% | 1013.4 hPa | 0 mm | - | 665 W/m² | - |
| 1777835361 | 16.11° C | 38% | 1013.7 hPa | 0 mm | - | 673 W/m² | - |
| 1777835059 | 16.11° C | 40% | 1013.9 hPa | 0 mm | - | 688 W/m² | - |
| 1777834755 | 16.11° C | 42% | 1013.9 hPa | 0 mm | - | 706 W/m² | - |
| 1777834453 | 16.11° C | 38% | 1013.9 hPa | 0 mm | - | 717 W/m² | - |
| 1777834151 | 15.56° C | 42% | 1014 hPa | 0 mm | - | 728 W/m² | - |
| 1777833848 | 16.11° C | 40% | 1014 hPa | 0 mm | - | 744 W/m² | - |
| 1777833544 | 15.56° C | 43% | 1014.4 hPa | 0 mm | - | 744 W/m² | - |
| 1777833241 | 15.56° C | 41% | 1014.4 hPa | 0 mm | - | 743 W/m² | - |
| 1777832938 | 15.56° C | 41% | 1014.4 hPa | 0 mm | - | 729 W/m² | - |
| 1777832637 | 15.56° C | 45% | 1014.6 hPa | 0 mm | - | 761 W/m² | - |
| 1777832334 | 15° C | 48% | 1014.5 hPa | 0 mm | - | 774 W/m² | - |
| 1777832031 | 15° C | 43% | 1014.7 hPa | 0 mm | - | 771 W/m² | - |
* Rain latest hour (hover to see other rain measurements)
** Current wind speed in m/s (hover to see current wind gust speed)